Time;durP1;ratioP1;P1;durP2;ratioP2;P2;SDS_P1;SDS_P2;PMS_P1;PMS_P2;Temp;Humidity;BMP_temperature;BMP_pressure;BME280_temperature;BME280_humidity;BME280_pressure;Samples;Min_cycle;Max_cycle;Signal;HPM_P1;HPM_P2
2021/04/08 00:00:58;;;;;;;18.87;10.90;;;;;;;0.18;78.36;99238.05;233791;1173;116290;-63
2021/04/08 00:06:03;;;;;;;15.23;10.43;;;;;;;0.20;78.42;99236.06;232734;1174;116311;-63
2021/04/08 00:11:08;;;;;;;19.43;9.03;;;;;;;0.24;78.12;99235.53;234234;1173;114723;-64
2021/04/08 00:16:11;;;;;;;14.35;7.50;;;;;;;0.23;77.87;99233.90;234175;1174;115297;-65
2021/04/08 00:21:14;;;;;;;15.50;8.00;;;;;;;0.25;78.06;99224.05;233052;1174;115118;-64
2021/04/08 00:26:18;;;;;;;14.10;9.10;;;;;;;0.25;77.74;99228.48;232907;1174;115022;-67
2021/04/08 00:31:22;;;;;;;13.35;8.78;;;;;;;0.23;77.67;99233.90;234186;1170;116387;-65
2021/04/08 00:36:25;;;;;;;14.45;8.80;;;;;;;0.26;77.94;99237.97;233252;1174;115525;-64
2021/04/08 00:41:29;;;;;;;12.15;7.30;;;;;;;0.31;77.80;99236.41;232846;1174;115051;-65
2021/04/08 00:46:33;;;;;;;14.75;7.75;;;;;;;0.29;77.48;99243.67;232854;1174;115503;-63
2021/04/08 00:51:36;;;;;;;12.63;6.43;;;;;;;0.26;77.81;99241.41;232734;1174;115362;-65
2021/04/08 00:56:42;;;;;;;13.17;7.17;;;;;;;0.27;77.87;99236.98;232833;1175;117417;-63
2021/04/08 01:01:45;;;;;;;11.63;9.13;;;;;;;0.28;78.13;99236.80;232489;1174;116203;-64
2021/04/08 01:06:49;;;;;;;8.73;7.00;;;;;;;0.30;78.32;99250.54;232738;1168;115067;-63
2021/04/08 01:11:52;;;;;;;12.65;8.05;;;;;;;0.31;78.82;99254.76;233157;1174;114455;-63
2021/04/08 01:17:06;;;;;;;12.37;6.20;;;;;;;0.36;78.24;99253.41;233086;1174;115506;-63
2021/04/08 01:22:47;;;;;;;8.30;5.17;;;;;;;0.33;77.87;99246.72;233369;1174;115405;-64
2021/04/08 01:28:20;;;;;;;15.08;8.40;;;;;;;0.43;78.23;99244.64;233739;1174;114959;-64
2021/04/08 01:33:35;;;;;;;13.47;8.13;;;;;;;0.47;78.14;99250.34;233067;1174;115988;-63
2021/04/08 01:38:44;;;;;;;12.73;7.27;;;;;;;0.53;77.69;99252.25;233122;1174;116750;-63
2021/04/08 01:43:50;;;;;;;10.90;5.93;;;;;;;0.52;78.38;99246.19;234631;1174;116123;-62
2021/04/08 01:48:59;;;;;;;11.15;6.90;;;;;;;0.57;78.49;99254.33;233705;1167;116307;-63
2021/04/08 01:54:05;;;;;;;12.40;7.90;;;;;;;0.61;78.38;99246.91;234629;1174;115283;-64
2021/04/08 01:59:11;;;;;;;;;;;;;;;0.67;77.69;99254.84;234529;1174;116102;-64
2021/04/08 02:04:17;;;;;;;12.53;6.63;;;;;;;0.70;77.89;99256.28;235618;1174;102678;-64
2021/04/08 02:09:23;;;;;;;9.17;6.40;;;;;;;0.66;78.81;99261.08;233425;1174;115056;-64
2021/04/08 02:14:29;;;;;;;15.45;8.35;;;;;;;0.60;80.13;99261.02;232539;1174;115157;-64
2021/04/08 02:19:33;;;;;;;13.63;8.65;;;;;;;0.61;80.41;99271.30;233467;1174;115975;-65
2021/04/08 02:24:37;;;;;;;12.60;8.25;;;;;;;0.58;82.00;99263.01;233865;1176;115379;-63
2021/04/08 02:29:42;;;;;;;12.38;9.15;;;;;;;0.52;83.06;99272.41;234007;1174;117697;-64
2021/04/08 02:34:46;;;;;;;18.73;10.90;;;;;;;0.50;83.36;99268.34;233550;1174;115464;-63
2021/04/08 02:39:49;;;;;;;12.00;6.80;;;;;;;0.42;84.23;99269.23;232719;1174;115899;-63
2021/04/08 02:44:53;;;;;;;14.75;8.48;;;;;;;0.39;84.30;99271.41;233441;1170;116759;-63
2021/04/08 02:49:57;;;;;;;23.28;11.65;;;;;;;0.40;84.46;99279.09;233122;1174;115690;-63
2021/04/08 02:55:13;;;;;;;14.53;10.53;;;;;;;0.38;84.88;99285.50;232876;1174;117326;-63
2021/04/08 03:00:18;;;;;;;17.30;11.00;;;;;;;0.36;85.26;99295.36;232706;1176;116305;-63
2021/04/08 03:05:23;;;;;;;15.05;12.43;;;;;;;0.30;85.79;99287.23;232724;1174;116818;-63
2021/04/08 03:10:29;;;;;;;20.88;12.13;;;;;;;0.34;85.45;99292.91;233308;1174;116057;-65
2021/04/08 03:15:36;;;;;;;17.48;11.65;;;;;;;0.33;85.67;99286.04;233116;1174;115199;-62
2021/04/08 03:20:42;;;;;;;13.70;10.87;;;;;;;0.27;86.73;99286.78;233923;1174;116738;-63
2021/04/08 03:25:49;;;;;;;17.43;11.50;;;;;;;0.34;86.38;99285.86;233505;1174;114720;-63
2021/04/08 03:30:54;;;;;;;;;;;;;;;0.40;86.59;99294.00;233661;1174;115078;-63
2021/04/08 03:35:58;;;;;;;19.10;12.40;;;;;;;0.34;87.23;99298.97;234670;1174;103361;-63
2021/04/08 03:41:03;;;;;;;25.75;15.70;;;;;;;0.39;86.41;99310.73;233106;1174;115316;-63
2021/04/08 03:46:07;;;;;;;13.40;9.37;;;;;;;0.42;87.28;99311.19;232418;1174;115735;-65
2021/04/08 03:51:12;;;;;;;16.77;10.97;;;;;;;0.44;87.42;99324.13;234603;1174;115346;-65
2021/04/08 03:56:18;;;;;;;8.85;5.80;;;;;;;0.45;87.64;99323.13;233837;1174;115632;-65
2021/04/08 04:01:22;;;;;;;21.70;13.97;;;;;;;0.55;87.06;99318.44;235140;1174;114882;-64
2021/04/08 04:06:27;;;;;;;21.88;13.63;;;;;;;0.58;87.02;99321.52;234637;1174;115496;-64
2021/04/08 04:11:38;;;;;;;23.67;13.13;;;;;;;0.63;86.88;99318.33;235013;1174;116736;-64
2021/04/08 04:16:47;;;;;;;18.00;13.88;;;;;;;0.65;87.29;99329.45;234964;1174;115736;-64
2021/04/08 04:21:52;;;;;;;20.63;14.13;;;;;;;0.76;86.80;99323.77;233553;1174;115581;-65
2021/04/08 04:26:57;;;;;;;23.20;13.25;;;;;;;0.75;86.59;99337.88;233641;1174;116104;-64
2021/04/08 04:32:00;;;;;;;17.90;11.48;;;;;;;0.76;87.34;99336.89;233688;1174;118278;-64
2021/04/08 04:37:03;;;;;;;21.45;13.45;;;;;;;0.85;86.65;99343.67;232438;1170;115927;-63
2021/04/08 04:42:08;;;;;;;23.45;13.40;;;;;;;0.86;86.84;99347.93;233320;1174;115487;-63
2021/04/08 04:47:12;;;;;;;21.25;14.35;;;;;;;0.88;87.26;99353.00;232851;1174;117210;-63
2021/04/08 04:52:15;;;;;;;21.20;13.10;;;;;;;0.96;86.96;99353.70;232711;1174;115895;-64
2021/04/08 04:57:18;;;;;;;6.37;5.67;;;;;;;0.96;86.85;99356.32;232808;1171;115299;-64
2021/04/08 05:02:24;;;;;;;19.83;12.33;;;;;;;1.03;86.81;99355.59;233273;1174;116753;-65
2021/04/08 05:07:28;;;;;;;22.70;14.33;;;;;;;1.13;86.73;99358.77;232707;1176;116340;-64
2021/04/08 05:12:31;;;;;;;10.80;6.78;;;;;;;1.15;86.34;99367.27;232681;1174;115838;-65
2021/04/08 05:17:36;;;;;;;13.13;8.68;;;;;;;1.20;86.96;99370.17;233031;1170;117057;-63
2021/04/08 05:22:40;;;;;;;19.27;12.07;;;;;;;1.18;86.54;99386.10;232756;1174;115368;-63
2021/04/08 05:27:44;;;;;;;17.07;10.50;;;;;;;1.17;86.86;99384.47;232497;1174;115752;-63
2021/04/08 05:32:46;;;;;;;23.85;14.30;;;;;;;1.29;86.69;99403.18;233739;1167;115771;-64
2021/04/08 05:37:49;;;;;;;18.20;13.10;;;;;;;1.29;86.44;99411.05;232964;1174;116311;-64
2021/04/08 05:42:52;;;;;;;30.30;17.40;;;;;;;1.43;86.64;99404.98;233579;1174;116236;-62
2021/04/08 05:47:55;;;;;;;18.90;11.48;;;;;;;1.53;85.82;99416.00;232830;1174;115687;-63
2021/04/08 05:53:01;;;;;;;14.57;10.67;;;;;;;1.63;85.95;99432.29;233686;1174;116333;-64
2021/04/08 05:58:05;;;;;;;15.15;9.65;;;;;;;1.66;86.25;99439.81;233716;1174;115871;-64
2021/04/08 06:03:10;;;;;;;10.90;7.80;;;;;;;1.74;85.85;99443.33;233003;1174;115390;-62
2021/04/08 06:08:13;;;;;;;13.80;7.80;;;;;;;1.89;84.88;99457.23;233786;1167;115674;-62
2021/04/08 06:13:17;;;;;;;7.53;4.88;;;;;;;2.01;85.17;99461.02;235043;1174;115967;-62
2021/04/08 06:18:20;;;;;;;7.07;5.17;;;;;;;2.07;85.00;99476.05;234940;1174;115687;-64
2021/04/08 06:23:24;;;;;;;7.85;6.15;;;;;;;2.09;84.01;99479.31;234744;1175;115082;-62
2021/04/08 06:28:31;;;;;;;5.53;5.03;;;;;;;1.99;83.34;99495.38;234579;1174;115210;-63
2021/04/08 06:33:34;;;;;;;7.40;6.65;;;;;;;1.99;83.87;99499.82;234585;1174;115426;-63
2021/04/08 06:38:41;;;;;;;8.67;4.90;;;;;;;2.12;83.19;99509.68;233483;1175;116808;-63
2021/04/08 06:43:45;;;;;;;8.73;5.03;;;;;;;2.35;83.08;99520.84;232863;1175;115739;-65
2021/04/08 06:49:01;;;;;;;9.20;5.20;;;;;;;2.38;83.05;99532.81;232543;1174;118088;-64
2021/04/08 06:54:05;;;;;;;11.40;5.85;;;;;;;2.36;82.14;99548.78;232422;1175;116884;-66
2021/04/08 06:59:10;;;;;;;7.98;4.38;;;;;;;2.34;82.67;99550.78;233191;1174;115700;-64
2021/04/08 07:04:15;;;;;;;8.30;5.78;;;;;;;2.38;82.23;99556.48;232670;1175;116162;-64
2021/04/08 07:09:18;;;;;;;6.17;4.37;;;;;;;2.36;82.76;99565.38;232904;1175;115422;-66
2021/04/08 07:14:20;;;;;;;9.30;5.20;;;;;;;2.37;82.54;99574.09;233108;1174;115634;-63
2021/04/08 07:19:23;;;;;;;7.20;6.10;;;;;;;2.45;82.99;99583.66;232781;1174;115485;-65
2021/04/08 07:24:27;;;;;;;6.55;4.00;;;;;;;2.43;82.04;99594.39;233502;1174;115173;-65
2021/04/08 07:29:39;;;;;;;6.07;3.47;;;;;;;2.29;81.84;99603.94;233006;1174;115483;-63
2021/04/08 07:34:45;;;;;;;6.17;2.77;;;;;;;2.33;81.57;99623.61;233237;1174;114990;-66
2021/04/08 07:39:50;;;;;;;7.88;4.08;;;;;;;2.23;82.66;99630.97;232392;1175;115178;-67
2021/04/08 07:45:02;;;;;;;8.43;4.10;;;;;;;2.05;81.50;99635.80;233331;1174;115136;-65
2021/04/08 07:50:04;;;;;;;8.80;5.33;;;;;;;2.07;82.42;99638.25;233843;1174;115155;-63
2021/04/08 07:55:14;;;;;;;6.00;3.50;;;;;;;1.96;83.09;99648.22;232522;1174;114494;-63
2021/04/08 08:00:37;;;;;;;7.93;4.67;;;;;;;1.99;83.82;99661.00;234884;1176;115174;-62
2021/04/08 08:05:47;;;;;;;5.53;3.87;;;;;;;2.11;83.67;99661.38;232944;1174;115079;-63
2021/04/08 08:11:02;;;;;;;8.43;4.23;;;;;;;2.20;83.62;99681.30;232556;1174;115134;-62
2021/04/08 08:16:18;;;;;;;9.55;5.88;;;;;;;2.14;82.73;99679.39;232489;1174;114960;-64
2021/04/08 08:21:30;;;;;;;5.40;3.40;;;;;;;2.29;84.29;99689.91;235085;1174;115540;-65
2021/04/08 08:26:39;;;;;;;7.97;5.43;;;;;;;2.73;83.45;99692.50;233229;1174;115548;-65
2021/04/08 08:31:48;;;;;;;2.75;2.03;;;;;;;2.85;83.24;99695.45;235038;1176;115894;-64
2021/04/08 08:36:58;;;;;;;15.13;5.73;;;;;;;3.20;82.63;99702.51;234555;1174;114385;-64
2021/04/08 08:42:04;;;;;;;7.43;3.53;;;;;;;3.38;81.35;99715.23;234497;1174;115350;-65
2021/04/08 08:47:28;;;;;;;8.35;5.98;;;;;;;3.52;80.08;99719.63;233958;1174;114682;-65
2021/04/08 08:52:36;;;;;;;9.53;3.48;;;;;;;3.72;78.60;99723.23;232394;1174;116720;-66
2021/04/08 08:57:40;;;;;;;32.65;20.20;;;;;;;3.90;77.99;99738.60;233251;1174;114830;-65
2021/04/08 09:02:44;;;;;;;10.88;5.00;;;;;;;4.04;75.35;99742.14;232966;1174;116037;-65
2021/04/08 09:07:51;;;;;;;6.50;3.23;;;;;;;3.95;77.33;99738.03;232431;1174;114727;-64
2021/04/08 09:13:16;;;;;;;6.95;4.15;;;;;;;3.96;76.77;99752.85;232440;1174;115045;-64
2021/04/08 09:18:21;;;;;;;3.80;3.00;;;;;;;4.06;76.06;99758.59;233001;1174;115173;-63
2021/04/08 09:23:24;;;;;;;8.57;3.43;;;;;;;4.10;73.57;99765.11;232448;1170;115958;-65
2021/04/08 09:28:31;;;;;;;8.05;4.30;;;;;;;4.40;76.58;99778.91;232727;1174;115512;-62
2021/04/08 09:33:43;;;;;;;10.90;4.05;;;;;;;4.79;73.94;99780.97;232814;1171;114698;-63
2021/04/08 09:38:49;;;;;;;8.20;2.63;;;;;;;4.96;73.16;99771.68;232359;1174;118763;-66
2021/04/08 09:43:52;;;;;;;5.70;3.65;;;;;;;5.06;69.61;99787.98;233208;1167;115227;-64
2021/04/08 09:48:55;;;;;;;6.30;2.83;;;;;;;5.05;71.04;99790.82;234081;1174;115679;-65
2021/04/08 09:54:02;;;;;;;11.45;4.60;;;;;;;5.35;70.96;99793.97;233275;1175;115488;-65
2021/04/08 09:59:06;;;;;;;6.60;2.63;;;;;;;5.66;68.69;99799.53;233065;1171;115273;-65
2021/04/08 10:04:18;;;;;;;5.10;2.40;;;;;;;6.06;67.95;99804.89;232824;1175;116442;-64
2021/04/08 10:09:21;;;;;;;7.30;4.97;;;;;;;6.27;66.35;99804.67;234294;1174;114516;-64
2021/04/08 10:14:26;;;;;;;5.73;2.97;;;;;;;6.35;63.97;99815.05;234380;1174;115336;-65
2021/04/08 10:19:35;;;;;;;5.20;2.93;;;;;;;6.38;65.19;99811.19;235073;1174;115319;-65
2021/04/08 10:24:40;;;;;;;3.93;2.93;;;;;;;6.10;63.43;99814.05;233878;1174;115113;-66
2021/04/08 10:29:45;;;;;;;4.43;2.40;;;;;;;5.75;62.40;99823.97;233127;1171;114686;-65
2021/04/08 10:34:48;;;;;;;2.90;2.50;;;;;;;5.49;64.50;99834.48;235060;1174;114594;-64
2021/04/08 10:39:51;;;;;;;8.03;3.80;;;;;;;5.61;64.88;99836.34;235047;1174;114935;-65
2021/04/08 10:44:56;;;;;;;6.73;3.43;;;;;;;5.32;66.60;99860.44;235073;1174;114976;-65
2021/04/08 10:50:01;;;;;;;5.57;2.67;;;;;;;5.20;68.09;99867.33;234352;1174;115191;-67
2021/04/08 10:55:13;;;;;;;5.53;2.93;;;;;;;5.14;70.76;99868.92;232638;1174;115105;-66
2021/04/08 11:00:18;;;;;;;7.75;4.10;;;;;;;5.52;71.80;99876.37;233520;1173;116685;-67
2021/04/08 11:05:27;;;;;;;4.07;2.50;;;;;;;5.77;72.44;99884.60;232607;1174;114851;-67
2021/04/08 11:10:32;;;;;;;7.08;4.05;;;;;;;6.14;69.92;99865.53;232449;1176;115135;-67
2021/04/08 11:15:39;;;;;;;8.35;4.95;;;;;;;6.12;67.52;99879.98;234113;1174;115859;-67
2021/04/08 11:20:45;;;;;;;5.73;3.15;;;;;;;5.68;67.76;99887.42;233011;1174;115981;-67
2021/04/08 11:26:03;;;;;;;3.43;2.00;;;;;;;5.78;67.67;99886.23;232597;1174;115654;-66
2021/04/08 11:31:19;;;;;;;6.88;3.98;;;;;;;5.88;67.85;99894.58;233406;1174;115140;-66
2021/04/08 11:36:24;;;;;;;5.43;3.20;;;;;;;5.28;67.63;99907.59;232847;1174;115041;-66
2021/04/08 11:41:28;;;;;;;5.05;3.03;;;;;;;4.86;70.58;99927.09;232753;1174;117038;-68
2021/04/08 11:46:35;;;;;;;7.20;3.90;;;;;;;4.99;73.38;99940.36;232753;1174;115690;-65
2021/04/08 11:51:40;;;;;;;4.18;3.20;;;;;;;5.02;73.50;99950.55;232604;1174;116564;-65
2021/04/08 11:56:44;;;;;;;3.93;3.48;;;;;;;5.12;73.12;99941.47;233783;1174;115139;-65
2021/04/08 12:01:53;;;;;;;2.65;2.45;;;;;;;5.56;74.51;99944.53;234164;1174;116296;-66
2021/04/08 12:07:07;;;;;;;4.13;2.50;;;;;;;5.56;71.86;99952.46;233724;1174;115228;-66
2021/04/08 12:12:11;;;;;;;2.78;2.45;;;;;;;6.07;76.21;99942.30;232639;1174;114712;-65
2021/04/08 12:17:14;;;;;;;4.00;3.43;;;;;;;6.56;69.08;99940.31;234555;1170;114370;-65
2021/04/08 12:22:17;;;;;;;3.57;2.77;;;;;;;6.52;68.50;99936.44;232859;1174;115283;-65
2021/04/08 12:27:20;;;;;;;8.08;4.28;;;;;;;6.56;68.96;99948.26;234287;1174;116920;-66
2021/04/08 12:32:30;;;;;;;6.33;4.50;;;;;;;6.59;67.12;99945.20;235180;1174;115597;-66
2021/04/08 12:37:33;;;;;;;9.83;4.97;;;;;;;6.63;66.74;99947.25;235078;1174;115424;-66
2021/04/08 12:42:40;;;;;;;3.78;3.05;;;;;;;6.58;65.36;99951.52;235243;1174;116543;-66
2021/04/08 12:47:46;;;;;;;8.93;5.63;;;;;;;5.93;67.82;99974.20;235219;1174;116399;-66
2021/04/08 12:52:49;;;;;;;8.87;5.40;;;;;;;5.47;70.43;99963.42;233291;1174;208518;-66
2021/04/08 12:57:57;;;;;;;5.40;3.77;;;;;;;6.26;70.48;99975.11;233628;1174;118060;-66
2021/04/08 13:03:04;;;;;;;3.54;2.40;;;;;;;7.22;67.49;99969.41;233167;1174;116594;-65
2021/04/08 13:08:07;;;;;;;;;;;;;;;7.53;65.32;99976.67;232583;1174;115478;-68
2021/04/08 13:13:10;;;;;;;3.95;2.68;;;;;;;7.43;63.53;99985.88;234462;1174;105722;-65
2021/04/08 13:18:14;;;;;;;4.95;3.28;;;;;;;7.36;64.23;99989.55;233651;1174;115595;-65
2021/04/08 13:23:17;;;;;;;3.07;2.40;;;;;;;7.08;63.52;99990.63;233054;1174;115321;-66
2021/04/08 13:28:20;;;;;;;5.58;3.65;;;;;;;6.83;63.58;100005.52;232622;1171;115131;-65
2021/04/08 13:33:24;;;;;;;5.05;4.55;;;;;;;6.47;66.49;100011.19;233060;1169;115307;-65
2021/04/08 13:38:27;;;;;;;4.25;2.58;;;;;;;6.01;67.85;100029.61;232540;1174;115448;-65
2021/04/08 13:43:30;;;;;;;4.15;2.65;;;;;;;5.61;69.25;100028.56;233320;1174;115243;-65
2021/04/08 13:48:32;;;;;;;4.07;3.67;;;;;;;5.44;70.87;100033.36;233702;1174;115571;-66
2021/04/08 13:53:35;;;;;;;6.28;4.45;;;;;;;5.35;72.09;100043.27;232978;1174;115753;-65
2021/04/08 13:58:42;;;;;;;4.75;3.63;;;;;;;5.55;71.30;100043.38;232761;1174;116370;-65
2021/04/08 14:03:46;;;;;;;6.90;2.87;;;;;;;5.51;70.79;100036.84;233472;1174;118123;-65
2021/04/08 14:08:49;;;;;;;7.40;5.07;;;;;;;5.61;70.60;100047.89;232700;1174;117266;-65
2021/04/08 14:13:51;;;;;;;8.40;4.40;;;;;;;5.62;69.20;100054.00;233549;1174;115604;-65
2021/04/08 14:18:55;;;;;;;8.15;5.25;;;;;;;5.55;67.61;100061.07;233988;1174;116044;-66
2021/04/08 14:23:58;;;;;;;7.40;5.07;;;;;;;5.57;69.64;100064.34;233524;1174;115797;-65
2021/04/08 14:29:01;;;;;;;7.23;4.13;;;;;;;5.38;70.27;100079.89;232654;1174;117133;-65
2021/04/08 14:34:08;;;;;;;5.93;4.47;;;;;;;5.50;71.80;100082.83;234061;1174;115845;-65
2021/04/08 14:39:10;;;;;;;3.33;3.03;;;;;;;5.60;70.60;100088.58;235276;1174;117684;-66
2021/04/08 14:44:13;;;;;;;10.78;6.08;;;;;;;5.63;70.92;100092.66;235255;1174;117548;-65
2021/04/08 14:49:16;;;;;;;5.40;4.33;;;;;;;5.83;69.85;100098.06;234099;1174;115972;-66
2021/04/08 14:54:20;;;;;;;12.35;5.45;;;;;;;5.95;68.23;100104.48;233591;1175;117109;-65
2021/04/08 14:59:24;;;;;;;6.68;4.63;;;;;;;5.97;68.20;100102.45;233679;1175;116009;-65
2021/04/08 15:04:28;;;;;;;8.53;5.68;;;;;;;6.00;66.99;100107.36;234124;1174;116130;-65
2021/04/08 15:09:33;;;;;;;7.13;4.33;;;;;;;5.87;66.12;100115.18;233321;1174;116162;-66
2021/04/08 15:14:38;;;;;;;7.83;4.13;;;;;;;5.62;67.12;100120.94;233047;1174;116077;-64
2021/04/08 15:19:40;;;;;;;4.18;3.58;;;;;;;5.21;69.22;100149.88;232587;1174;116214;-64
2021/04/08 15:24:45;;;;;;;4.27;3.30;;;;;;;4.93;72.87;100155.11;233259;1174;116865;-65
2021/04/08 15:29:49;;;;;;;4.00;1.83;;;;;;;4.82;75.41;100136.31;233329;1174;115540;-65
2021/04/08 15:34:52;;;;;;;10.28;5.03;;;;;;;5.06;74.83;100146.50;232638;1174;116583;-65
2021/04/08 15:39:55;;;;;;;3.15;2.88;;;;;;;5.04;74.16;100157.27;233221;1174;116536;-65
2021/04/08 15:44:59;;;;;;;5.50;4.75;;;;;;;5.02;73.28;100161.91;232614;1176;120385;-65
2021/04/08 15:50:02;;;;;;;7.53;4.48;;;;;;;5.08;74.49;100161.16;232469;1171;116930;-66
2021/04/08 15:55:07;;;;;;;7.37;4.93;;;;;;;4.99;72.95;100166.75;232640;1172;116165;-64
2021/04/08 16:00:12;;;;;;;8.90;5.25;;;;;;;4.85;73.01;100168.45;233184;1172;116398;-65
2021/04/08 16:05:16;;;;;;;4.35;3.08;;;;;;;4.84;72.30;100185.31;232780;1174;114978;-65
2021/04/08 16:10:19;;;;;;;3.43;2.80;;;;;;;4.67;71.91;100181.23;232819;1174;117219;-65
2021/04/08 16:15:26;;;;;;;;;;;;;;;4.69;71.55;100193.25;233553;1174;115048;-65
2021/04/08 16:20:29;;;;;;;6.40;3.63;;;;;;;4.61;72.06;100182.79;234279;1174;103074;-65
2021/04/08 16:25:32;;;;;;;10.90;7.13;;;;;;;4.76;72.07;100198.62;233583;1174;115332;-66
2021/04/08 16:30:55;;;;;;;5.93;5.03;;;;;;;4.71;70.89;100201.81;233447;1174;117617;-65
2021/04/08 16:35:58;;;;;;;4.30;2.33;;;;;;;4.66;72.43;100206.00;234143;1174;115452;-66
2021/04/08 16:41:02;;;;;;;12.53;6.10;;;;;;;4.63;71.87;100203.73;234630;1168;114549;-65
2021/04/08 16:46:05;;;;;;;7.08;6.30;;;;;;;4.58;71.59;100212.23;234172;1174;116421;-66
2021/04/08 16:51:10;;;;;;;9.38;5.93;;;;;;;4.53;71.76;100219.88;235006;1174;114925;-65
2021/04/08 16:56:16;;;;;;;11.80;7.20;;;;;;;4.44;71.94;100228.06;234034;1167;115167;-65
2021/04/08 17:01:18;;;;;;;13.23;7.18;;;;;;;4.26;72.99;100237.19;233785;1174;115766;-65
2021/04/08 17:06:21;;;;;;;9.85;6.55;;;;;;;4.22;73.44;100258.83;233342;1174;121566;-65
2021/04/08 17:11:24;;;;;;;12.43;7.83;;;;;;;4.22;73.42;100251.73;233102;1174;115468;-66
2021/04/08 17:16:27;;;;;;;12.00;8.00;;;;;;;4.17;73.54;100261.19;233900;1174;116868;-64
2021/04/08 17:21:30;;;;;;;10.78;5.68;;;;;;;4.10;74.08;100273.45;232855;1174;116861;-64
2021/04/08 17:26:33;;;;;;;17.68;8.33;;;;;;;4.00;75.55;100286.89;232339;1174;117719;-66
2021/04/08 17:31:37;;;;;;;11.40;7.90;;;;;;;3.96;75.05;100280.36;232522;1174;116054;-65
2021/04/08 17:36:40;;;;;;;11.68;9.05;;;;;;;3.96;76.08;100293.55;233023;1174;116633;-65
2021/04/08 17:41:44;;;;;;;12.48;7.35;;;;;;;3.94;75.27;100314.00;232416;1174;116570;-66
2021/04/08 17:46:48;;;;;;;11.37;5.27;;;;;;;3.67;78.05;100337.25;232987;1174;120781;-64
2021/04/08 17:51:51;;;;;;;9.78;5.05;;;;;;;3.42;79.73;100341.04;232960;1170;116026;-65
2021/04/08 17:56:56;;;;;;;7.68;4.53;;;;;;;3.34;79.79;100330.56;232872;1170;115733;-65
2021/04/08 18:02:01;;;;;;;7.85;6.18;;;;;;;3.19;79.33;100335.73;233269;1174;117180;-65
2021/04/08 18:07:04;;;;;;;4.53;2.98;;;;;;;3.00;82.13;100334.35;233179;1170;116417;-65
2021/04/08 18:12:09;;;;;;;7.28;3.98;;;;;;;2.97;82.13;100347.86;232731;1174;115707;-65
2021/04/08 18:17:11;;;;;;;8.48;4.40;;;;;;;2.95;82.81;100349.02;232626;1174;116871;-65
2021/04/08 18:22:14;;;;;;;8.83;4.25;;;;;;;2.93;81.67;100356.27;233547;1174;115924;-65
2021/04/08 18:27:17;;;;;;;4.03;2.70;;;;;;;2.87;81.89;100360.39;232595;1175;116727;-65
2021/04/08 18:32:20;;;;;;;8.63;4.57;;;;;;;2.87;82.92;100368.29;233004;1174;116156;-64
2021/04/08 18:37:24;;;;;;;10.80;4.85;;;;;;;2.91;82.71;100368.78;234428;1174;118883;-64
2021/04/08 18:42:27;;;;;;;11.50;4.70;;;;;;;2.91;81.95;100369.59;233988;1171;115640;-65
2021/04/08 18:47:31;;;;;;;6.17;3.50;;;;;;;2.90;82.44;100375.03;233908;1174;117615;-66
2021/04/08 18:52:38;;;;;;;5.70;3.53;;;;;;;2.83;84.04;100385.41;232819;1175;115947;-63
2021/04/08 18:57:41;;;;;;;5.50;4.25;;;;;;;2.68;84.76;100382.67;233876;1174;116055;-64
2021/04/08 19:02:49;;;;;;;5.80;5.27;;;;;;;2.72;83.92;100385.79;235233;1174;115986;-65
2021/04/08 19:07:53;;;;;;;6.90;5.15;;;;;;;2.79;82.94;100385.91;234316;1174;115578;-64
2021/04/08 19:12:57;;;;;;;5.27;4.70;;;;;;;2.86;83.07;100394.79;234312;1174;114639;-64
2021/04/08 19:18:01;;;;;;;6.98;4.00;;;;;;;2.89;83.24;100391.82;234245;1173;114544;-64
2021/04/08 19:23:08;;;;;;;11.08;5.18;;;;;;;2.81;83.90;100399.73;233921;1174;114977;-64
2021/04/08 19:28:12;;;;;;;7.45;5.08;;;;;;;2.88;84.23;100400.71;233482;1174;115859;-64
2021/04/08 19:33:17;;;;;;;5.67;4.20;;;;;;;2.82;83.73;100399.56;233298;1174;115561;-63
2021/04/08 19:38:20;;;;;;;5.30;4.25;;;;;;;2.81;83.09;100399.73;232897;1174;114682;-64
2021/04/08 19:43:23;;;;;;;7.63;5.58;;;;;;;2.85;83.43;100404.50;233063;1174;119430;-65
2021/04/08 19:48:27;;;;;;;9.23;6.50;;;;;;;2.86;82.78;100403.52;232828;1174;114759;-64
2021/04/08 19:53:31;;;;;;;10.03;6.90;;;;;;;2.88;82.24;100406.80;232776;1174;115208;-64
2021/04/08 19:58:36;;;;;;;14.78;9.23;;;;;;;2.85;83.35;100407.13;233066;1174;115988;-63
2021/04/08 20:03:39;;;;;;;16.18;11.70;;;;;;;2.81;82.76;100402.37;232462;1174;115633;-64
2021/04/08 20:08:44;;;;;;;19.47;11.60;;;;;;;2.84;82.19;100402.03;233420;1174;114941;-65
2021/04/08 20:13:49;;;;;;;19.10;10.07;;;;;;;2.84;81.82;100408.13;232972;1174;115593;-64
2021/04/08 20:18:53;;;;;;;22.45;10.25;;;;;;;2.80;81.79;100414.70;232852;1174;115812;-65
2021/04/08 20:23:56;;;;;;;19.13;11.17;;;;;;;2.81;81.45;100412.90;233207;1174;115524;-66
2021/04/08 20:28:59;;;;;;;20.00;12.20;;;;;;;2.79;81.70;100410.43;233984;1174;116132;-67
2021/04/08 20:34:03;;;;;;;25.83;10.18;;;;;;;2.75;81.36;100411.78;234191;1174;117466;-66
2021/04/08 20:39:10;;;;;;;25.90;11.65;;;;;;;2.68;81.01;100411.63;232454;1174;115200;-66
2021/04/08 20:44:13;;;;;;;17.10;9.23;;;;;;;2.60;80.66;100413.44;233815;1174;114987;-64
2021/04/08 20:49:18;;;;;;;18.98;10.78;;;;;;;2.61;80.48;100410.64;233963;1170;115992;-65
2021/04/08 20:54:23;;;;;;;19.50;10.33;;;;;;;2.65;80.19;100416.40;234315;1174;116115;-65
2021/04/08 20:59:26;;;;;;;17.70;8.77;;;;;;;2.59;79.53;100420.52;234928;1174;115061;-65
2021/04/08 21:04:30;;;;;;;23.10;10.15;;;;;;;2.59;78.76;100428.41;234451;1174;115726;-66
2021/04/08 21:09:33;;;;;;;21.10;8.25;;;;;;;2.56;79.59;100427.91;234854;1174;115781;-66
2021/04/08 21:14:37;;;;;;;15.63;9.38;;;;;;;2.56;78.58;100425.28;234152;1175;115272;-67
2021/04/08 21:19:41;;;;;;;15.90;7.43;;;;;;;2.57;78.52;100427.75;233441;1174;115773;-66
2021/04/08 21:24:44;;;;;;;16.55;9.85;;;;;;;2.55;78.22;100434.16;232978;1174;115457;-63
2021/04/08 21:29:47;;;;;;;15.85;7.18;;;;;;;2.43;77.64;100440.77;234316;1174;116120;-63
2021/04/08 21:34:51;;;;;;;18.20;8.53;;;;;;;2.26;77.84;100443.38;232904;1174;115723;-63
2021/04/08 21:39:55;;;;;;;18.13;8.53;;;;;;;2.22;76.78;100444.69;233385;1171;115430;-62
2021/04/08 21:44:59;;;;;;;13.43;8.30;;;;;;;2.12;76.91;100440.59;233523;1174;115733;-64
2021/04/08 21:50:06;;;;;;;18.07;8.80;;;;;;;1.98;76.35;100445.48;233079;1174;115627;-63
2021/04/08 21:55:11;;;;;;;15.00;7.60;;;;;;;1.81;78.41;100446.45;232682;1174;115599;-62
2021/04/08 22:00:22;;;;;;;13.75;7.40;;;;;;;1.72;77.24;100455.29;233381;1174;116108;-62
2021/04/08 22:05:28;;;;;;;14.33;6.73;;;;;;;1.66;76.99;100456.75;232959;1170;115473;-66
2021/04/08 22:10:32;;;;;;;16.03;7.63;;;;;;;1.58;76.19;100464.59;232872;1174;115693;-64
2021/04/08 22:15:35;;;;;;;12.05;7.08;;;;;;;1.50;76.17;100466.39;233045;1174;115866;-62
2021/04/08 22:20:42;;;;;;;18.45;7.40;;;;;;;1.45;75.89;100463.41;233414;1174;115866;-66
2021/04/08 22:25:57;;;;;;;19.73;9.30;;;;;;;1.39;76.08;100472.73;232698;1174;116027;-66
2021/04/08 22:31:06;;;;;;;13.10;7.97;;;;;;;1.32;76.25;100475.16;233617;1176;117453;-66
2021/04/08 22:36:15;;;;;;;19.85;9.40;;;;;;;1.27;76.22;100466.10;232577;1175;116746;-67
2021/04/08 22:41:20;;;;;;;17.90;8.80;;;;;;;1.18;76.50;100470.52;233054;1174;116762;-66
2021/04/08 22:46:23;;;;;;;24.20;9.40;;;;;;;1.08;74.68;100479.47;233426;1174;116265;-64
2021/04/08 22:51:27;;;;;;;14.97;7.33;;;;;;;0.91;77.32;100476.76;232593;1175;117515;-65
2021/04/08 22:56:31;;;;;;;17.05;8.05;;;;;;;0.86;77.51;100481.64;234277;1175;115812;-64
2021/04/08 23:01:34;;;;;;;11.80;6.43;;;;;;;0.76;77.16;100480.08;234939;1174;116428;-65
2021/04/08 23:06:37;;;;;;;17.00;5.87;;;;;;;0.70;77.21;100467.56;235146;1174;114963;-65
2021/04/08 23:11:41;;;;;;;13.53;6.50;;;;;;;0.66;76.78;100473.12;235161;1174;114618;-64
2021/04/08 23:16:44;;;;;;;12.27;6.97;;;;;;;0.70;76.63;100476.27;235105;1174;116021;-64
2021/04/08 23:21:48;;;;;;;16.08;6.23;;;;;;;0.67;76.97;100473.94;235032;1174;115096;-65